createdAt,value
2018-02-03T00:00:27.316Z,16.25
2018-02-03T00:01:31.969Z,16.10
2018-02-03T00:02:36.539Z,15.40
2018-02-03T00:03:41.224Z,15.70
2018-02-03T00:04:46.613Z,15.38
2018-02-03T00:05:51.584Z,14.73
2018-02-03T00:06:57.007Z,14.27
2018-02-03T00:08:02.531Z,15.40
2018-02-03T00:09:07.144Z,14.57
2018-02-03T00:10:11.702Z,13.82
2018-02-03T00:11:17.325Z,13.60
2018-02-03T00:12:22.095Z,13.05
2018-02-03T00:13:26.795Z,13.50
2018-02-03T00:14:31.366Z,13.90
2018-02-03T00:15:35.967Z,13.00
2018-02-03T00:16:41.306Z,12.90
2018-02-03T00:17:46.582Z,12.50
2018-02-03T00:18:51.313Z,12.63
2018-02-03T00:19:56.183Z,11.77
2018-02-03T00:21:00.747Z,12.10
2018-02-03T00:22:05.604Z,12.23
2018-02-03T00:23:11.245Z,12.30
2018-02-03T00:24:16.637Z,13.20
2018-02-03T00:25:21.395Z,12.30
2018-02-03T00:26:26.896Z,12.43
2018-02-03T00:27:31.490Z,11.30
2018-02-03T00:28:36.193Z,12.15
2018-02-03T00:29:40.843Z,11.07
2018-02-03T00:30:45.693Z,11.60
2018-02-03T00:31:51.008Z,12.15
2018-02-03T00:32:55.648Z,11.23
2018-02-03T00:34:00.985Z,10.43
2018-02-03T00:35:05.871Z,11.10
2018-02-03T00:36:10.483Z,11.88
2018-02-03T00:37:15.048Z,11.50
2018-02-03T00:38:19.627Z,12.00
2018-02-03T00:39:24.959Z,10.60
2018-02-03T00:40:30.337Z,9.90
2018-02-03T00:41:35.361Z,10.35
2018-02-03T00:42:40.193Z,10.27
2018-02-03T00:43:44.799Z,9.52
2018-02-03T00:44:49.343Z,9.75
2018-02-03T00:45:53.875Z,10.00
2018-02-03T00:46:59.613Z,10.48
2018-02-03T00:48:04.911Z,9.80
2018-02-03T00:49:09.464Z,9.60
2018-02-03T00:50:14.944Z,9.80
2018-02-03T00:51:19.454Z,10.02
2018-02-03T00:52:24.162Z,12.88
2018-02-03T00:53:28.978Z,12.02
2018-02-03T00:54:33.556Z,11.35
2018-02-03T00:55:38.135Z,10.57
2018-02-03T00:56:42.689Z,10.77
2018-02-03T00:57:48.032Z,10.55
2018-02-03T00:58:53.369Z,10.95
2018-02-03T00:59:57.927Z,11.55
2018-02-03T01:01:02.635Z,10.93
2018-02-03T01:02:07.166Z,11.40
2018-02-03T01:03:11.936Z,11.93
2018-02-03T01:04:16.844Z,11.60
2018-02-03T01:05:21.375Z,10.57
2018-02-03T01:06:25.914Z,11.00
2018-02-03T01:07:30.500Z,12.20
2018-02-03T01:08:35.333Z,11.98
2018-02-03T01:09:39.878Z,11.30
2018-02-03T01:10:44.412Z,11.00
2018-02-03T01:11:49.860Z,10.80
2018-02-03T01:12:55.193Z,10.40
2018-02-03T01:14:00.619Z,10.50
2018-02-03T01:15:05.958Z,9.23
2018-02-03T01:16:10.818Z,10.30
2018-02-03T01:17:15.403Z,9.68
2018-02-03T01:18:19.955Z,10.13
2018-02-03T01:19:24.592Z,9.85
2018-02-03T01:20:29.144Z,10.40
2018-02-03T01:21:34.005Z,10.63
2018-02-03T01:22:38.657Z,10.23
2018-02-03T01:23:43.970Z,11.00
2018-02-03T01:24:48.494Z,10.60
2018-02-03T01:25:53.778Z,10.43
2018-02-03T01:26:58.421Z,10.30
2018-02-03T01:28:03.037Z,10.93
2018-02-03T01:29:07.692Z,11.20
2018-02-03T01:30:12.283Z,9.90
2018-02-03T01:31:17.647Z,9.30
2018-02-03T01:32:22.255Z,9.88
2018-02-03T01:33:26.836Z,9.68
2018-02-03T01:34:31.395Z,9.60
2018-02-03T01:35:35.983Z,10.02
2018-02-03T01:36:41.272Z,9.98
2018-02-03T01:37:45.884Z,9.87
2018-02-03T01:38:51.247Z,10.50
2018-02-03T01:39:56.559Z,9.90
2018-02-03T01:41:01.107Z,10.43
2018-02-03T01:42:05.695Z,10.60
2018-02-03T01:43:10.249Z,9.82
2018-02-03T01:44:15.039Z,10.55
2018-02-03T01:45:20.638Z,9.70
2018-02-03T01:46:25.164Z,9.50
2018-02-03T01:47:38.782Z,9.53
2018-02-03T01:48:43.512Z,9.88
2018-02-03T01:49:49.106Z,9.60
2018-02-03T01:50:53.649Z,10.30
2018-02-03T01:51:58.252Z,10.05
2018-02-03T01:53:02.827Z,9.63
2018-02-03T01:54:07.379Z,9.82
2018-02-03T01:55:12.027Z,9.93
2018-02-03T01:56:17.306Z,10.68
2018-02-03T01:57:21.830Z,10.30
2018-02-03T01:58:26.371Z,10.85
2018-02-03T01:59:31.031Z,11.70
2018-02-03T02:00:35.579Z,11.07
2018-02-03T02:01:40.126Z,11.80
2018-02-03T02:02:45.439Z,11.90
2018-02-03T02:03:49.963Z,11.98
2018-02-03T02:04:55.271Z,12.10
2018-02-03T02:05:59.884Z,12.23
2018-02-03T02:07:04.470Z,12.77
2018-02-03T02:08:09.079Z,12.30
2018-02-03T02:09:13.612Z,12.85
2018-02-03T02:10:18.458Z,12.02
2018-02-03T02:11:23.012Z,11.80
2018-02-03T02:12:27.572Z,11.48
2018-02-03T02:13:32.102Z,9.70
2018-02-03T02:14:36.637Z,10.20
2018-02-03T02:15:41.175Z,8.70
2018-02-03T02:16:45.703Z,9.85
2018-02-03T02:17:50.282Z,9.40
2018-02-03T02:18:55.171Z,8.93
2018-02-03T02:19:59.762Z,9.55
2018-02-03T02:21:04.564Z,10.30
2018-02-03T02:22:09.107Z,9.70
2018-02-03T02:23:13.671Z,9.27
2018-02-03T02:24:18.189Z,8.50
2018-02-03T02:25:22.990Z,8.75
2018-02-03T02:26:27.696Z,8.63
2018-02-03T02:27:32.991Z,8.97
2018-02-03T02:28:37.506Z,8.73
2018-02-03T02:29:42.064Z,8.60
2018-02-03T02:30:46.608Z,8.63
2018-02-03T02:31:51.245Z,7.10
2018-02-03T02:32:55.798Z,7.87
2018-02-03T02:34:00.380Z,7.90
2018-02-03T02:35:05.020Z,7.67
2018-02-03T02:36:10.345Z,8.30
2018-02-03T02:37:15.973Z,8.00
2018-02-03T02:38:21.310Z,8.50
2018-02-03T02:39:26.617Z,7.80
2018-02-03T02:40:31.882Z,8.55
2018-02-03T02:41:37.395Z,7.90
2018-02-03T02:42:42.159Z,8.18
2018-02-03T02:43:46.692Z,8.50
2018-02-03T02:44:51.240Z,8.40
2018-02-03T02:45:55.773Z,8.43
2018-02-03T02:47:01.146Z,8.73
2018-02-03T02:48:05.686Z,8.75
2018-02-03T02:49:10.229Z,8.30
2018-02-03T02:50:15.704Z,10.00
2018-02-03T02:51:20.308Z,9.48
2018-02-03T02:52:27.580Z,9.20
2018-02-03T02:53:32.367Z,9.55
2018-02-03T02:54:37.645Z,8.95
2018-02-03T02:55:42.350Z,9.00
2018-02-03T02:56:46.934Z,9.57
2018-02-03T02:57:52.243Z,10.15
2018-02-03T02:58:56.826Z,10.00
2018-02-03T03:00:01.356Z,9.73
2018-02-03T03:01:05.946Z,9.70
2018-02-03T03:02:10.527Z,9.38
2018-02-03T03:03:15.095Z,9.73
2018-02-03T03:04:19.678Z,9.40
2018-02-03T03:05:24.201Z,10.55
2018-02-03T03:06:28.959Z,10.50
2018-02-03T03:07:34.302Z,10.63
2018-02-03T03:08:39.617Z,9.98
2018-02-03T03:09:44.918Z,10.10
2018-02-03T03:10:49.515Z,10.50
2018-02-03T03:11:54.322Z,10.30
2018-02-03T03:12:58.898Z,9.90
2018-02-03T03:14:04.184Z,10.10
2018-02-03T03:15:09.057Z,9.73
2018-02-03T03:16:13.821Z,9.73
2018-02-03T03:17:18.707Z,10.63
2018-02-03T03:18:23.532Z,9.90
2018-02-03T03:19:28.123Z,9.82
2018-02-03T03:20:32.719Z,10.65
2018-02-03T03:21:37.305Z,9.40
2018-02-03T03:22:41.844Z,10.13
2018-02-03T03:23:46.873Z,8.73
2018-02-03T03:24:51.419Z,10.13
2018-02-03T03:25:56.288Z,9.02
2018-02-03T03:27:00.838Z,9.82
2018-02-03T03:28:06.188Z,9.30
2018-02-03T03:29:10.731Z,9.80
2018-02-03T03:30:15.335Z,9.20
2018-02-03T03:31:19.832Z,9.68
2018-02-03T03:32:24.380Z,9.07
2018-02-03T03:33:29.153Z,9.00
2018-02-03T03:34:33.915Z,9.20
2018-02-03T03:35:38.480Z,10.50
2018-02-03T03:36:42.979Z,9.65
2018-02-03T03:37:48.280Z,9.00
2018-02-03T03:38:52.794Z,8.73
2018-02-03T03:39:57.323Z,8.75
2018-02-03T03:41:01.854Z,10.82
2018-02-03T03:42:07.491Z,10.05
2018-02-03T03:43:12.804Z,10.48
2018-02-03T03:44:17.676Z,10.43
2018-02-03T03:45:22.240Z,11.98
2018-02-03T03:46:27.859Z,8.93
2018-02-03T03:47:33.223Z,9.05
2018-02-03T03:48:38.503Z,9.50
2018-02-03T03:49:43.047Z,9.60
2018-02-03T03:50:47.596Z,9.90
2018-02-03T03:51:52.154Z,9.02
2018-02-03T03:52:56.678Z,9.60
2018-02-03T03:54:01.485Z,9.02
2018-02-03T03:55:07.412Z,9.27
2018-02-03T03:56:11.966Z,8.45
2018-02-03T03:57:17.452Z,8.40
2018-02-03T03:58:22.113Z,8.30
2018-02-03T04:01:01.401Z,9.00
2018-02-03T04:02:05.956Z,8.25
2018-02-03T04:03:10.568Z,7.65
2018-02-03T04:04:15.523Z,8.40
2018-02-03T04:05:20.379Z,8.07
2018-02-03T04:06:24.901Z,7.97
2018-02-03T04:07:29.531Z,8.52
2018-02-03T04:08:34.424Z,7.40
2018-02-03T04:09:38.938Z,8.93
2018-02-03T04:10:43.486Z,8.80
2018-02-03T04:11:48.014Z,7.95
2018-02-03T04:12:53.321Z,8.05
2018-02-03T04:13:57.836Z,7.95
2018-02-03T04:15:03.476Z,7.60
2018-02-03T04:16:08.042Z,7.72
2018-02-03T04:17:12.609Z,7.97
2018-02-03T04:18:18.043Z,8.70
2018-02-03T04:19:23.424Z,7.20
2018-02-03T04:20:28.160Z,8.57
2018-02-03T04:21:33.842Z,8.27
2018-02-03T04:22:39.117Z,7.32
2018-02-03T04:23:43.620Z,8.05
2018-02-03T04:24:48.168Z,8.88
2018-02-03T04:25:52.830Z,7.67
2018-02-03T04:26:57.411Z,8.10
2018-02-03T04:28:02.262Z,7.55
2018-02-03T04:29:06.803Z,8.43
2018-02-03T04:30:11.543Z,7.87
2018-02-03T04:31:16.051Z,7.87
2018-02-03T04:32:20.604Z,9.30
2018-02-03T04:33:26.189Z,8.05
2018-02-03T04:34:30.733Z,7.80
2018-02-03T04:35:35.281Z,7.40
2018-02-03T04:36:40.108Z,7.87
2018-02-03T04:37:45.792Z,7.95
2018-02-03T04:38:50.397Z,8.02
2018-02-03T04:39:55.675Z,7.50
2018-02-03T04:41:00.200Z,8.38
2018-02-03T04:42:04.742Z,8.32
2018-02-03T04:43:09.318Z,7.30
2018-02-03T04:44:14.231Z,8.68
2018-02-03T04:45:19.532Z,8.07
2018-02-03T04:46:24.116Z,8.52
2018-02-03T04:47:28.809Z,9.15
2018-02-03T04:48:33.385Z,8.52
2018-02-03T04:49:38.694Z,8.10
2018-02-03T04:50:43.519Z,8.50
2018-02-03T04:51:48.066Z,8.30
2018-02-03T04:52:52.824Z,8.30
2018-02-03T04:53:57.348Z,8.88
2018-02-03T04:55:02.428Z,9.10
2018-02-03T04:56:06.943Z,9.00
2018-02-03T04:57:11.470Z,8.23
2018-02-03T04:58:16.153Z,7.40
2018-02-03T04:59:21.455Z,7.87
2018-02-03T05:00:26.071Z,9.20
2018-02-03T05:01:30.765Z,7.40
2018-02-03T05:02:35.701Z,8.50
2018-02-03T05:03:40.399Z,9.20
2018-02-03T05:04:44.926Z,8.40
2018-02-03T05:05:49.557Z,8.48
2018-02-03T05:06:54.085Z,8.75
2018-02-03T05:07:59.390Z,8.30
2018-02-03T05:09:04.382Z,9.63
2018-02-03T05:10:08.961Z,8.45
2018-02-03T05:11:13.533Z,9.50
2018-02-03T05:12:19.045Z,8.35
2018-02-03T05:13:23.599Z,8.60
2018-02-03T05:14:28.185Z,9.35
2018-02-03T05:15:32.965Z,8.40
2018-02-03T05:16:37.557Z,9.90
2018-02-03T05:17:42.878Z,8.37
2018-02-03T05:18:47.382Z,9.68
2018-02-03T05:19:51.969Z,10.23
2018-02-03T05:20:56.701Z,9.50
2018-02-03T05:22:01.646Z,9.68
2018-02-03T05:23:06.200Z,9.40
2018-02-03T05:24:11.167Z,9.57
2018-02-03T05:25:15.861Z,10.60
2018-02-03T05:26:20.448Z,9.00
2018-02-03T05:27:25.508Z,9.80
2018-02-03T05:28:30.745Z,9.17
2018-02-03T05:29:35.283Z,9.25
2018-02-03T05:30:40.576Z,10.10
2018-02-03T05:31:45.409Z,10.30
2018-02-03T05:32:49.947Z,10.60
2018-02-03T05:33:54.482Z,11.33
2018-02-03T05:34:59.136Z,11.45
2018-02-03T05:36:04.128Z,10.80
2018-02-03T05:37:08.687Z,10.50
2018-02-03T05:38:13.365Z,10.93
2018-02-03T05:39:18.260Z,10.65
2018-02-03T05:40:22.874Z,11.15
2018-02-03T05:41:27.717Z,11.20
2018-02-03T05:42:32.285Z,11.70
2018-02-03T05:43:36.940Z,11.05
2018-02-03T05:44:41.876Z,12.43
2018-02-03T05:45:46.543Z,12.15
2018-02-03T05:46:51.226Z,10.90
2018-02-03T05:47:56.046Z,12.10
2018-02-03T05:49:00.727Z,11.40
2018-02-03T05:50:05.551Z,11.30
2018-02-03T05:51:10.329Z,11.95
2018-02-03T05:52:16.386Z,12.00
2018-02-03T05:53:21.732Z,11.35
2018-02-03T05:54:26.274Z,11.40
2018-02-03T05:55:30.905Z,11.55
2018-02-03T05:56:35.799Z,11.57
2018-02-03T05:57:40.343Z,10.55
2018-02-03T05:58:44.899Z,11.00
2018-02-03T05:59:50.209Z,10.95
2018-02-03T06:00:56.245Z,10.20
2018-02-03T06:02:01.036Z,11.00
2018-02-03T06:03:05.591Z,10.60
2018-02-03T06:04:11.147Z,10.20
2018-02-03T06:05:15.662Z,10.57
2018-02-03T06:06:20.178Z,10.80
2018-02-03T06:07:24.802Z,11.07
2018-02-03T06:08:30.431Z,11.27
2018-02-03T06:09:35.034Z,10.10
2018-02-03T06:10:39.585Z,10.95
2018-02-03T06:11:44.243Z,11.20
2018-02-03T06:12:49.754Z,11.10
2018-02-03T06:13:54.613Z,11.10
2018-02-03T06:14:59.932Z,10.65
2018-02-03T06:16:05.299Z,10.70
2018-02-03T06:17:09.858Z,10.38
2018-02-03T06:18:15.698Z,11.35
2018-02-03T06:19:20.846Z,10.80
2018-02-03T06:20:26.146Z,10.15
2018-02-03T06:21:30.955Z,10.13
2018-02-03T06:22:35.667Z,10.68
2018-02-03T06:23:40.201Z,9.85
2018-02-03T06:24:44.751Z,10.90
2018-02-03T06:25:50.059Z,10.93
2018-02-03T06:26:54.594Z,12.00
2018-02-03T06:27:59.908Z,11.95
2018-02-03T06:29:05.216Z,11.00
2018-02-03T06:30:09.863Z,11.70
2018-02-03T06:31:15.159Z,11.02
2018-02-03T06:32:19.902Z,11.60
2018-02-03T06:33:25.200Z,11.18
2018-02-03T06:34:29.716Z,11.85
2018-02-03T06:35:34.247Z,12.65
2018-02-03T06:36:38.807Z,12.35
2018-02-03T06:37:43.348Z,11.50
2018-02-03T06:38:47.873Z,13.00
2018-02-03T06:39:52.441Z,11.73
2018-02-03T06:40:57.304Z,18.83
2018-02-03T06:42:01.994Z,14.68
2018-02-03T06:43:06.840Z,19.10
2018-02-03T06:44:11.625Z,17.15
2018-02-03T06:45:16.168Z,12.80
2018-02-03T06:46:20.808Z,11.63
2018-02-03T06:47:26.275Z,11.93
2018-02-03T06:48:30.877Z,11.73
2018-02-03T06:49:35.468Z,12.70
2018-02-03T06:50:40.904Z,12.15
2018-02-03T06:51:46.250Z,11.80
2018-02-03T06:52:51.531Z,11.40
2018-02-03T06:53:56.046Z,12.10
2018-02-03T06:55:00.860Z,12.02
2018-02-03T06:56:05.421Z,11.95
2018-02-03T06:57:10.756Z,10.52
2018-02-03T06:58:15.341Z,11.90
2018-02-03T06:59:19.924Z,11.40
2018-02-03T07:00:25.259Z,12.67
2018-02-03T07:01:30.063Z,13.10
2018-02-03T07:02:34.878Z,12.27
2018-02-03T07:03:39.570Z,12.20
2018-02-03T07:04:44.101Z,12.23
2018-02-03T07:05:48.927Z,11.75
2018-02-03T07:06:53.494Z,11.93
2018-02-03T07:07:58.842Z,11.85
2018-02-03T07:09:04.356Z,12.70
2018-02-03T07:10:09.793Z,12.60
2018-02-03T07:11:15.114Z,13.40
2018-02-03T07:12:20.420Z,13.07
2018-02-03T07:13:25.344Z,13.05
2018-02-03T07:14:29.863Z,12.43
2018-02-03T07:15:34.418Z,13.77
2018-02-03T07:16:39.707Z,13.82
2018-02-03T07:17:44.600Z,14.35
2018-02-03T07:18:49.202Z,12.75
2018-02-03T07:20:56.043Z,15.90
2018-02-03T07:22:01.462Z,13.60
2018-02-03T07:23:06.063Z,12.95
2018-02-03T07:24:11.790Z,13.13
2018-02-03T07:25:17.182Z,12.80
2018-02-03T07:26:21.765Z,13.07
2018-02-03T07:27:26.371Z,13.60
2018-02-03T07:28:30.930Z,13.20
2018-02-03T07:29:35.858Z,12.95
2018-02-03T07:30:41.008Z,13.20
2018-02-03T07:31:45.678Z,14.35
2018-02-03T07:32:50.996Z,14.80
2018-02-03T07:33:56.308Z,13.77
2018-02-03T07:35:00.889Z,14.27
2018-02-03T07:36:06.347Z,14.60
2018-02-03T07:37:10.906Z,15.18
2018-02-03T07:38:15.434Z,14.50
2018-02-03T07:39:20.820Z,15.15
2018-02-03T07:40:26.504Z,16.52
2018-02-03T07:41:31.332Z,14.60
2018-02-03T07:42:35.872Z,15.32
2018-02-03T07:43:40.858Z,16.00
2018-02-03T07:44:46.186Z,14.18
2018-02-03T07:45:50.737Z,14.85
2018-02-03T07:46:55.326Z,15.52
2018-02-03T07:47:59.919Z,15.88
2018-02-03T07:49:04.443Z,17.08
2018-02-03T07:50:09.042Z,15.43
2018-02-03T07:51:13.980Z,13.43
2018-02-03T07:52:18.830Z,14.25
2018-02-03T07:53:23.403Z,13.48
2018-02-03T07:54:27.931Z,14.20
2018-02-03T07:55:32.521Z,14.70
2018-02-03T07:56:37.063Z,16.87
2018-02-03T07:57:41.831Z,16.40
2018-02-03T07:58:46.374Z,14.87
2018-02-03T07:59:50.958Z,14.48
2018-02-03T08:00:55.652Z,14.32
2018-02-03T08:02:00.209Z,14.07
2018-02-03T08:03:05.131Z,14.67
2018-02-03T08:04:10.119Z,14.82
2018-02-03T08:05:14.654Z,15.23
2018-02-03T08:06:20.295Z,15.60
2018-02-03T08:07:25.627Z,15.40
2018-02-03T08:08:31.156Z,14.80
2018-02-03T08:09:36.445Z,16.30
2018-02-03T08:10:41.089Z,15.25
2018-02-03T08:11:45.775Z,15.70
2018-02-03T08:12:50.352Z,15.88
2018-02-03T08:13:54.962Z,15.32
2018-02-03T08:14:59.634Z,15.07
2018-02-03T08:16:04.214Z,17.05
2018-02-03T08:17:08.781Z,16.30
2018-02-03T08:18:15.196Z,16.70
2018-02-03T08:19:20.011Z,14.70
2018-02-03T08:20:24.700Z,14.40
2018-02-03T08:21:29.610Z,14.83
2018-02-03T08:22:34.554Z,14.70
2018-02-03T08:23:39.167Z,13.90
2018-02-03T08:24:43.725Z,13.60
2018-02-03T08:25:48.264Z,13.60
2018-02-03T08:26:53.598Z,15.20
2018-02-03T08:27:59.342Z,15.95
2018-02-03T08:29:04.967Z,15.17
2018-02-03T08:30:10.302Z,14.02
2018-02-03T08:31:16.379Z,14.40
2018-02-03T08:32:21.183Z,14.10
2018-02-03T08:33:26.514Z,13.50
2018-02-03T08:34:31.046Z,14.00
2018-02-03T08:35:35.600Z,13.13
2018-02-03T08:36:40.231Z,13.07
2018-02-03T08:37:45.114Z,12.45
2018-02-03T08:38:49.649Z,13.55
2018-02-03T08:39:54.300Z,15.48
2018-02-03T08:40:59.548Z,21.57
2018-02-03T08:42:04.198Z,14.48
2018-02-03T08:43:08.938Z,12.57
2018-02-03T08:44:14.486Z,12.48
2018-02-03T08:45:20.768Z,12.35
2018-02-03T08:46:25.397Z,13.03
2018-02-03T08:47:30.251Z,12.88
2018-02-03T08:48:34.910Z,12.70
2018-02-03T08:49:39.468Z,12.10
2018-02-03T08:50:44.188Z,11.93
2018-02-03T08:51:48.758Z,12.27
2018-02-03T08:52:53.386Z,13.40
2018-02-03T08:53:57.958Z,12.40
2018-02-03T08:55:03.296Z,13.23
2018-02-03T08:56:08.633Z,12.37
2018-02-03T08:57:13.306Z,11.80
2018-02-03T08:58:17.860Z,11.85
2018-02-03T08:59:23.193Z,12.57
2018-02-03T09:00:28.160Z,12.90
2018-02-03T09:01:32.771Z,12.63
2018-02-03T09:02:37.315Z,13.62
2018-02-03T09:03:43.103Z,13.27
2018-02-03T09:04:47.665Z,16.58
2018-02-03T09:05:52.241Z,14.18
2018-02-03T09:06:56.771Z,13.57
2018-02-03T09:08:01.459Z,12.85
2018-02-03T09:09:07.003Z,13.55
2018-02-03T09:10:11.704Z,15.60
2018-02-03T09:11:16.328Z,16.83
2018-02-03T09:12:21.092Z,16.17
2018-02-03T09:13:25.652Z,15.95
2018-02-03T09:14:30.334Z,23.17
2018-02-03T09:15:36.153Z,17.90
2018-02-03T09:16:40.689Z,15.52
2018-02-03T09:17:46.230Z,15.55
2018-02-03T09:18:52.085Z,15.50
2018-02-03T09:19:57.420Z,15.75
2018-02-03T09:21:02.092Z,16.95
2018-02-03T09:22:06.679Z,15.93
2018-02-03T09:23:11.760Z,16.00
2018-02-03T09:24:17.095Z,16.23
2018-02-03T09:25:22.562Z,17.17
2018-02-03T09:26:27.159Z,17.35
2018-02-03T09:27:31.710Z,16.15
2018-02-03T09:28:36.472Z,16.75
2018-02-03T09:29:42.914Z,15.98
2018-02-03T09:30:47.519Z,16.73
2018-02-03T09:31:52.447Z,17.50
2018-02-03T09:32:57.056Z,17.48
2018-02-03T09:34:01.750Z,15.40
2018-02-03T09:35:06.335Z,15.88
2018-02-03T09:36:11.019Z,17.37
2018-02-03T09:37:16.584Z,17.45
2018-02-03T09:38:21.190Z,16.80
2018-02-03T09:39:25.741Z,16.67
2018-02-03T09:40:30.360Z,16.50
2018-02-03T09:41:34.902Z,18.30
2018-02-03T09:42:39.597Z,16.83
2018-02-03T09:43:44.721Z,17.52
2018-02-03T09:44:49.309Z,17.57
2018-02-03T09:45:53.950Z,19.62
2018-02-03T09:46:59.524Z,17.10
2018-02-03T09:48:04.867Z,17.80
2018-02-03T09:49:09.706Z,20.58
2018-02-03T09:50:14.294Z,18.42
2018-02-03T09:51:19.600Z,17.80
2018-02-03T09:52:24.137Z,17.37
2018-02-03T09:53:29.644Z,17.12
2018-02-03T09:54:34.594Z,16.60
2018-02-03T09:55:39.952Z,17.52
2018-02-03T09:56:44.725Z,15.27
2018-02-03T09:57:49.430Z,16.17
2018-02-03T09:58:54.057Z,15.60
2018-02-03T09:59:59.381Z,16.30
2018-02-03T10:01:04.336Z,17.45
2018-02-03T10:02:08.931Z,17.08
2018-02-03T10:03:15.033Z,17.08
2018-02-03T10:04:19.780Z,16.95
2018-02-03T10:05:24.491Z,16.77
2018-02-03T10:06:29.282Z,16.95
2018-02-03T10:07:33.961Z,16.95
2018-02-03T10:08:39.292Z,17.27
2018-02-03T10:09:44.615Z,17.73
2018-02-03T10:10:50.529Z,18.00
2018-02-03T10:11:55.091Z,18.23
2018-02-03T10:12:59.820Z,17.17
2018-02-03T10:14:04.575Z,17.75
2018-02-03T10:15:09.243Z,18.75
2018-02-03T10:16:13.963Z,19.20
2018-02-03T10:17:18.785Z,17.02
2018-02-03T10:18:23.417Z,16.42
2018-02-03T10:19:28.104Z,16.67
2018-02-03T10:20:33.278Z,16.60
2018-02-03T10:21:37.908Z,17.52
2018-02-03T10:22:42.468Z,19.95
2018-02-03T10:23:47.158Z,19.10
2018-02-03T10:24:52.554Z,18.53
2018-02-03T10:25:57.274Z,18.65
2018-02-03T10:27:01.883Z,17.77
2018-02-03T10:28:07.220Z,17.27
2018-02-03T10:29:11.840Z,16.27
2018-02-03T10:30:16.975Z,17.05
2018-02-03T10:31:22.036Z,19.15
2018-02-03T10:32:26.791Z,17.55
2018-02-03T10:33:31.954Z,16.42
2018-02-03T10:34:37.345Z,16.50
2018-02-03T10:35:42.379Z,15.50
2018-02-03T10:36:47.049Z,17.00
2018-02-03T10:37:52.741Z,17.42
2018-02-03T10:38:57.416Z,17.02
2018-02-03T10:40:02.135Z,18.12
2018-02-03T10:41:06.797Z,17.40
2018-02-03T10:42:11.869Z,16.58
2018-02-03T10:43:18.201Z,16.02
2018-02-03T10:44:24.045Z,15.77
2018-02-03T10:45:29.369Z,16.27
2018-02-03T10:46:34.842Z,15.77
2018-02-03T10:47:40.259Z,20.50
2018-02-03T10:48:44.876Z,16.67
2018-02-03T10:49:50.377Z,14.35
2018-02-03T10:50:56.000Z,13.50
2018-02-03T10:52:00.658Z,11.80
2018-02-03T10:53:05.541Z,15.48
2018-02-03T10:54:10.508Z,14.82
2018-02-03T10:55:15.519Z,12.95
2018-02-03T10:56:21.511Z,14.20
2018-02-03T10:57:26.537Z,12.90
2018-02-03T10:58:31.263Z,12.18
2018-02-03T11:00:06.385Z,12.40
2018-02-03T11:01:11.061Z,12.60
2018-02-03T11:02:15.707Z,15.80
2018-02-03T11:03:21.170Z,11.50
2018-02-03T11:04:25.797Z,11.25
2018-02-03T11:05:30.431Z,10.93
2018-02-03T11:06:35.503Z,11.10
2018-02-03T11:07:40.285Z,11.57
2018-02-03T11:08:44.982Z,10.95
2018-02-03T11:09:50.724Z,10.00
2018-02-03T11:10:56.137Z,10.80
2018-02-03T11:12:00.849Z,10.15
2018-02-03T11:13:05.474Z,10.43
2018-02-03T11:14:12.430Z,9.90
2018-02-03T11:15:17.052Z,9.40
2018-02-03T11:16:21.743Z,9.68
2018-02-03T11:17:26.506Z,9.52
2018-02-03T11:18:32.745Z,11.20
2018-02-03T11:19:38.616Z,11.23
2018-02-03T11:20:43.708Z,11.85
2018-02-03T11:21:48.327Z,11.18
2018-02-03T11:22:53.618Z,11.85
2018-02-03T11:23:59.428Z,11.32
2018-02-03T11:25:04.736Z,12.20
2018-02-03T11:26:12.344Z,12.52
2018-02-03T11:27:16.901Z,10.52
2018-02-03T11:28:21.567Z,11.38
2018-02-03T11:29:26.144Z,10.60
2018-02-03T11:30:30.855Z,11.60
2018-02-03T11:31:35.484Z,12.20
2018-02-03T11:32:40.657Z,12.45
2018-02-03T11:33:45.263Z,12.43
2018-02-03T11:34:50.378Z,12.00
2018-02-03T11:35:54.985Z,10.60
2018-02-03T11:37:00.411Z,11.88
2018-02-03T11:38:05.828Z,12.75
2018-02-03T11:39:10.798Z,12.23
2018-02-03T11:40:15.447Z,12.45
2018-02-03T11:41:20.000Z,12.67
2018-02-03T11:42:24.587Z,12.00
2018-02-03T11:43:29.656Z,12.10
2018-02-03T11:44:34.688Z,12.77
2018-02-03T11:45:39.271Z,12.63
2018-02-03T11:46:44.668Z,13.93
2018-02-03T11:47:49.228Z,12.37
2018-02-03T11:48:54.671Z,13.52
2018-02-03T11:49:59.377Z,13.30
2018-02-03T11:51:04.042Z,13.07
2018-02-03T11:52:09.856Z,13.00
2018-02-03T11:53:14.827Z,12.63
2018-02-03T11:54:19.823Z,12.18
2018-02-03T11:55:24.716Z,13.32
2018-02-03T11:56:29.280Z,12.40
2018-02-03T11:57:34.343Z,12.32
2018-02-03T11:58:39.695Z,11.85
2018-02-03T11:59:44.383Z,12.77
2018-02-03T12:00:50.592Z,13.10
2018-02-03T12:01:55.413Z,12.68
2018-02-03T12:03:00.028Z,12.07
2018-02-03T12:04:05.227Z,12.75
2018-02-03T12:05:09.806Z,13.48
2018-02-03T12:06:15.308Z,12.73
2018-02-03T12:07:20.635Z,13.45
2018-02-03T12:08:25.239Z,13.68
2018-02-03T12:09:30.062Z,13.02
2018-02-03T12:10:34.701Z,12.90
2018-02-03T12:11:39.380Z,13.60
2018-02-03T12:12:44.003Z,13.32
2018-02-03T12:13:48.593Z,13.38
2018-02-03T12:14:54.566Z,13.40
2018-02-03T12:15:59.205Z,13.10
2018-02-03T12:17:03.814Z,13.62
2018-02-03T12:18:08.429Z,14.35
2018-02-03T12:19:13.004Z,13.85
2018-02-03T12:20:17.805Z,14.55
2018-02-03T12:21:22.681Z,13.85
2018-02-03T12:22:27.373Z,14.80
2018-02-03T12:23:32.416Z,14.73
2018-02-03T12:24:37.090Z,13.82
2018-02-03T12:25:41.693Z,13.73
2018-02-03T12:26:46.464Z,15.02
2018-02-03T12:27:51.031Z,14.57
2018-02-03T12:28:55.722Z,14.15
2018-02-03T12:30:01.253Z,14.13
2018-02-03T12:31:06.986Z,14.45
2018-02-03T12:32:11.606Z,14.43
2018-02-03T12:33:16.162Z,14.90
2018-02-03T12:34:20.762Z,14.30
2018-02-03T12:35:25.345Z,13.62
2018-02-03T12:36:29.970Z,13.30
2018-02-03T12:37:36.416Z,13.80
2018-02-03T12:38:40.989Z,12.85
2018-02-03T12:39:45.572Z,12.63
2018-02-03T12:40:50.685Z,13.20
2018-02-03T12:41:56.072Z,12.88
2018-02-03T12:43:01.415Z,13.52
2018-02-03T12:44:06.048Z,12.75
2018-02-03T12:45:10.681Z,12.43
2018-02-03T12:46:16.087Z,11.50
2018-02-03T12:47:20.672Z,10.40
2018-02-03T12:48:25.883Z,10.48
2018-02-03T12:49:30.766Z,8.48
2018-02-03T12:50:36.073Z,7.20
2018-02-03T12:51:42.223Z,8.40
2018-02-03T12:52:46.891Z,8.40
2018-02-03T12:53:51.600Z,7.18
2018-02-03T12:54:56.923Z,8.80
2018-02-03T12:56:01.590Z,10.77
2018-02-03T12:57:06.225Z,10.77
2018-02-03T12:58:11.400Z,8.13
2018-02-03T12:59:16.772Z,8.10
2018-02-03T13:00:21.472Z,8.98
2018-02-03T13:01:26.095Z,8.90
2018-02-03T13:02:30.712Z,7.40
2018-02-03T13:03:35.291Z,7.68
2018-02-03T13:04:39.883Z,8.20
2018-02-03T13:05:44.543Z,8.18
2018-02-03T13:06:49.213Z,7.80
2018-02-03T13:07:54.899Z,7.50
2018-02-03T13:08:59.527Z,7.40
2018-02-03T13:10:04.169Z,7.03
2018-02-03T13:11:09.826Z,7.53
2018-02-03T13:12:14.376Z,7.82
2018-02-03T13:13:19.016Z,7.78
2018-02-03T13:14:23.689Z,7.20
2018-02-03T13:15:28.261Z,7.12
2018-02-03T13:16:33.614Z,7.87
2018-02-03T13:17:38.288Z,6.55
2018-02-03T13:18:42.915Z,6.75
2018-02-03T13:19:47.631Z,6.45
2018-02-03T13:20:52.628Z,6.57
2018-02-03T13:21:57.253Z,7.20
2018-02-03T13:23:02.334Z,6.53
2018-02-03T13:24:07.184Z,6.30
2018-02-03T13:25:11.838Z,6.20
2018-02-03T13:26:17.191Z,5.97
2018-02-03T13:27:21.778Z,5.12
2018-02-03T13:28:26.434Z,5.43
2018-02-03T13:29:33.160Z,5.62
2018-02-03T13:30:38.778Z,5.50
2018-02-03T13:31:47.664Z,6.03
2018-02-03T13:32:52.539Z,6.20
2018-02-03T13:34:00.718Z,6.50
2018-02-03T13:35:04.842Z,6.35
2018-02-03T13:36:10.441Z,6.18
2018-02-03T13:37:16.223Z,5.95
2018-02-03T13:38:21.689Z,5.82
2018-02-03T13:39:26.429Z,6.22
2018-02-03T13:40:31.051Z,6.90
2018-02-03T13:41:35.599Z,6.70
2018-02-03T13:42:40.983Z,6.40
2018-02-03T13:43:45.693Z,10.18
2018-02-03T13:44:50.457Z,21.20
2018-02-03T13:45:55.034Z,14.75
2018-02-03T13:46:59.716Z,9.57
2018-02-03T13:48:04.325Z,7.00
2018-02-03T13:49:09.201Z,6.60
2018-02-03T13:50:13.772Z,6.55
2018-02-03T13:51:18.441Z,6.32
2018-02-03T13:52:23.444Z,5.80
2018-02-03T13:53:28.497Z,6.55
2018-02-03T13:54:33.149Z,5.80
2018-02-03T13:55:37.729Z,6.10
2018-02-03T13:56:43.054Z,5.95
2018-02-03T13:57:48.424Z,9.55
2018-02-03T13:58:53.298Z,12.98
2018-02-03T13:59:57.963Z,8.30
2018-02-03T14:01:02.551Z,8.53
2018-02-03T14:02:07.928Z,13.90
2018-02-03T14:03:12.508Z,10.45
2018-02-03T14:04:17.684Z,7.70
2018-02-03T14:05:22.481Z,7.15
2018-02-03T14:06:27.106Z,6.25
2018-02-03T14:07:31.731Z,7.60